KOMK

Omak Airport

Omak, Washington, USA
METAR KOMK 171753Z AUTO 00000KT 10SM CLR 09/03 A3035 RMK AO2 SLP283 T00940028 10094 21011 58005
Observed Flight Rules
Oct-17 @ 17:53 UTC (26 minutes ago) Visual Flight Rules
Visibility Clouds
10 miles
  • Clear skies
Temperatures Readings
Current 9°C / 48°F
Dewpoint 3°C / 37°F
Humidity 66%
Altimeter 30.35" Hg
Pressure 1028.3 hPa
Elevation 395
METAR KOMK 171753Z AUTO 00000KT 10SM CLR 09/03 A3035 RMK AO2 SLP283 T00940028 10094 21011 58005
Observed Flight Rules
Oct-17 @ 17:53 UTC
(26 minutes ago)
VFR
Clouds
  • Clear skies
Temperature Dewpoint
9°C / 48°F 3°C / 37°F
Humidity Altimeter Pressure
66% 30.35" Hg 1028.3 hPa